Time;durP1;ratioP1;P1;durP2;ratioP2;P2;SDS_P1;SDS_P2;PMS_P1;PMS_P2;Temp;Humidity;BMP_temperature;BMP_pressure;BME280_temperature;BME280_humidity;BME280_pressure;Samples;Min_cycle;Max_cycle;Signal;HPM_P1;HPM_P2
2022/10/17 00:01:48;;;;;;;0.00;0.00;;;;;;;15.61;72.25;101622.00;5019285;28;20046;-78
2022/10/17 00:04:15;;;;;;;0.10;0.10;;;;;;;15.57;72.20;101612.31;5019803;28;20022;-79
2022/10/17 00:06:41;;;;;;;0.10;0.10;;;;;;;15.55;72.51;101607.00;5021311;28;20372;-79
2022/10/17 00:09:08;;;;;;;0.10;0.10;;;;;;;15.55;72.47;101608.81;5018791;28;20033;-78
2022/10/17 00:11:35;;;;;;;0.10;0.10;;;;;;;15.51;72.76;101613.34;5018333;28;20065;-78
2022/10/17 00:14:01;;;;;;;0.03;0.03;;;;;;;15.50;72.62;101612.50;5015473;28;20034;-78
2022/10/17 00:16:31;;;;;;;0.28;0.28;;;;;;;15.49;72.72;101610.72;5012992;28;20037;-78
2022/10/17 00:18:57;;;;;;;0.35;0.30;;;;;;;15.49;72.88;101602.72;5007901;28;20394;-78
2022/10/17 00:21:25;;;;;;;0.10;0.10;;;;;;;15.49;72.99;101602.72;5009843;28;20093;-78
2022/10/17 00:23:51;;;;;;;0.10;0.10;;;;;;;15.45;73.65;101601.06;4998602;28;20103;-78
2022/10/17 00:26:18;;;;;;;0.10;0.10;;;;;;;15.47;73.14;101598.34;5004821;28;20116;-78
2022/10/17 00:28:47;;;;;;;0.10;0.10;;;;;;;15.46;74.01;101602.78;5001453;28;20038;-78
2022/10/17 00:31:13;;;;;;;0.20;0.20;;;;;;;15.48;73.86;101600.97;5001592;28;20053;-78
2022/10/17 00:33:40;;;;;;;0.10;0.10;;;;;;;15.46;74.43;101600.13;5002382;28;20497;-78
2022/10/17 00:36:12;;;;;;;0.10;0.10;;;;;;;15.47;73.17;101593.88;5003777;28;20042;-77
2022/10/17 00:38:39;;;;;;;0.20;0.20;;;;;;;15.48;74.21;101600.09;4997821;28;20123;-77
2022/10/17 00:41:06;;;;;;;0.95;0.30;;;;;;;15.50;73.54;101593.81;5005559;28;20093;-77
2022/10/17 00:43:54;;;;;;;0.47;0.47;;;;;;;15.57;73.71;101598.97;5006246;28;20510;-77
2022/10/17 00:46:22;;;;;;;0.10;0.10;;;;;;;15.51;73.91;101592.88;4998531;28;20089;-78
2022/10/17 00:48:52;;;;;;;0.20;0.20;;;;;;;15.51;73.98;101589.31;5000245;28;20114;-78
2022/10/17 00:51:24;;;;;;;0.98;0.57;;;;;;;15.51;73.80;101584.88;5000761;28;20022;-78
2022/10/17 00:53:50;;;;;;;0.30;0.30;;;;;;;15.51;73.49;101598.22;5005874;28;20034;-78
2022/10/17 00:56:19;;;;;;;0.10;0.10;;;;;;;15.51;73.35;101594.66;5007229;28;20549;-79
2022/10/17 00:58:46;;;;;;;0.10;0.10;;;;;;;15.52;73.38;101593.75;5001019;28;20471;-77
2022/10/17 01:01:12;;;;;;;0.10;0.10;;;;;;;15.53;73.41;101593.69;5002844;28;20026;-77
2022/10/17 01:03:38;;;;;;;0.10;0.10;;;;;;;15.53;73.19;101601.72;5001315;28;20030;-77
2022/10/17 01:06:04;;;;;;;0.00;0.00;;;;;;;15.53;73.43;101599.03;5000581;28;20062;-77
2022/10/17 01:08:31;;;;;;;0.10;0.10;;;;;;;15.52;73.47;101591.06;5008421;28;20038;-78
2022/10/17 01:11:29;;;;;;;0.00;0.00;;;;;;;15.58;73.21;101598.91;5004156;28;20026;-77
2022/10/17 01:14:07;;;;;;;0.10;0.10;;;;;;;15.56;72.90;101598.06;5007266;28;20021;-78
2022/10/17 01:19:34;;;;;;;0.10;0.10;;;;;;;15.52;73.44;101578.59;5112412;27;21075;-77
2022/10/17 01:33:44;;;;;;;0.15;0.15;;;;;;;15.48;73.19;101566.25;5101179;27;20137;-77
2022/10/17 01:36:43;;;;;;;0.35;0.35;;;;;;;15.48;73.32;101554.72;5093800;28;20036;-77
2022/10/17 01:39:40;;;;;;;0.43;0.43;;;;;;;15.45;73.50;101549.44;5095857;28;20493;-77
2022/10/17 01:42:23;;;;;;;1.35;1.25;;;;;;;15.40;73.71;101546.88;5093087;28;20057;-78
2022/10/17 01:44:59;;;;;;;0.10;0.10;;;;;;;15.41;73.80;101545.97;5092464;28;20104;-78
2022/10/17 01:47:29;;;;;;;5.63;0.57;;;;;;;15.42;73.65;101541.53;5090751;28;20161;-77
2022/10/17 01:50:02;;;;;;;0.10;0.10;;;;;;;15.41;74.25;101545.13;5090142;28;20024;-77
2022/10/17 01:52:33;;;;;;;;;;;;;;;15.53;73.67;101544.75;5092128;28;20403;-78
2022/10/17 01:55:08;;;;;;;0.00;0.00;;;;;;;15.48;74.23;101534.19;5090436;28;20315;-77
2022/10/17 01:57:40;;;;;;;0.00;0.00;;;;;;;15.48;74.53;101531.53;5086968;28;20025;-77
2022/10/17 02:00:12;;;;;;;0.10;0.10;;;;;;;15.51;74.49;101539.47;5086258;28;20034;-77
2022/10/17 02:02:40;;;;;;;;;;;;;;;15.61;74.62;101536.50;5087247;28;20075;-78
2022/10/17 02:05:07;;;;;;;0.10;0.10;;;;;;;15.53;74.64;101532.25;5086289;28;19962;-77
2022/10/17 02:07:33;;;;;;;0.52;0.52;;;;;;;15.53;74.63;101529.59;5084996;28;20036;-77
2022/10/17 02:09:59;;;;;;;0.75;0.60;;;;;;;15.57;74.57;101532.19;5101225;28;20104;-78
2022/10/17 02:17:56;;;;;;;0.05;0.05;;;;;;;15.62;74.45;101517.75;5127888;27;20186;-78
2022/10/17 02:20:45;;;;;;;0.00;0.00;;;;;;;15.62;74.86;101514.22;5093192;28;20066;-79
2022/10/17 02:23:22;;;;;;;0.22;0.22;;;;;;;15.63;74.86;101511.50;5090754;28;20039;-79
2022/10/17 02:26:10;;;;;;;0.10;0.10;;;;;;;15.63;75.17;101507.97;5090774;28;20376;-78
2022/10/17 02:28:46;;;;;;;0.10;0.10;;;;;;;15.67;75.15;101514.97;5092163;28;20086;-76
2022/10/17 02:31:16;;;;;;;0.20;0.20;;;;;;;15.65;75.72;101504.31;5087456;28;20033;-78
2022/10/17 02:33:57;;;;;;;0.10;0.10;;;;;;;15.71;74.64;101497.91;5093937;28;20028;-79
2022/10/17 02:36:29;;;;;;;0.00;0.00;;;;;;;15.72;75.31;101507.66;5091766;28;20059;-79
2022/10/17 02:38:57;;;;;;;0.98;0.98;;;;;;;15.74;75.44;101516.53;5091548;28;20036;-79
2022/10/17 02:41:24;;;;;;;0.10;0.10;;;;;;;15.75;75.32;101526.28;5093898;28;20053;-79
2022/10/17 02:43:51;;;;;;;0.10;0.10;;;;;;;15.79;75.70;101514.56;5096591;28;20044;-79
2022/10/17 02:46:21;;;;;;;0.10;0.10;;;;;;;15.84;76.57;101518.00;5094179;28;20557;-79
2022/10/17 02:48:53;;;;;;;0.10;0.10;;;;;;;15.90;75.39;101511.63;5090187;28;20020;-76
2022/10/17 02:54:16;;;;;;;0.65;0.43;;;;;;;16.00;75.45;101506.84;5160061;27;93371;-78
2022/10/17 02:56:48;;;;;;;0.10;0.10;;;;;;;16.01;75.77;101514.81;5124273;28;20031;-79
2022/10/17 02:59:18;;;;;;;0.03;0.03;;;;;;;16.05;75.43;101514.69;5129219;27;20402;-78
2022/10/17 03:01:44;;;;;;;0.20;0.20;;;;;;;16.07;75.43;101513.72;5135995;27;20467;-79
2022/10/17 03:04:13;;;;;;;0.10;0.10;;;;;;;16.11;75.57;101515.41;5137655;28;20027;-79
2022/10/17 03:06:40;;;;;;;0.57;0.57;;;;;;;16.15;75.42;101522.38;5133513;27;20501;-78
2022/10/17 03:09:07;;;;;;;0.10;0.10;;;;;;;16.19;75.70;101528.50;5128061;27;20565;-79
2022/10/17 03:11:33;;;;;;;0.25;0.25;;;;;;;16.24;75.88;101526.56;5128582;28;20067;-78
2022/10/17 03:13:59;;;;;;;0.10;0.10;;;;;;;16.27;76.10;101533.59;5135925;28;20038;-78
2022/10/17 03:16:25;;;;;;;0.10;0.10;;;;;;;16.32;76.04;101523.63;5129901;28;20055;-78
2022/10/17 03:18:51;;;;;;;0.57;0.57;;;;;;;16.36;76.30;101516.38;5125144;28;20025;-77
2022/10/17 03:21:18;;;;;;;0.10;0.10;;;;;;;16.39;75.74;101525.16;5126537;28;20028;-78
2022/10/17 03:23:44;;;;;;;0.22;0.22;;;;;;;16.42;75.81;101525.06;5121212;28;20467;-77
2022/10/17 03:26:12;;;;;;;0.10;0.10;;;;;;;16.45;75.62;101530.31;5132122;28;20055;-78
2022/10/17 03:28:38;;;;;;;0.57;0.57;;;;;;;16.47;75.58;101533.81;5122018;28;20441;-77
2022/10/17 03:31:08;;;;;;;1.10;0.30;;;;;;;16.52;75.63;101543.47;5127678;28;20088;-78
2022/10/17 03:33:34;;;;;;;0.10;0.10;;;;;;;16.54;75.64;101533.63;5126010;27;20024;-78
2022/10/17 03:36:06;;;;;;;0.45;0.45;;;;;;;16.57;75.33;101531.69;5117387;27;20123;-78
2022/10/17 03:38:33;;;;;;;0.30;0.30;;;;;;;16.58;75.58;101525.41;5118899;28;20034;-77
2022/10/17 03:40:59;;;;;;;0.50;0.50;;;;;;;16.59;74.92;101520.94;5127526;27;20156;-77
2022/10/17 03:43:25;;;;;;;0.10;0.10;;;;;;;16.57;75.00;101523.66;5131669;27;20022;-78
2022/10/17 03:45:51;;;;;;;0.10;0.10;;;;;;;16.56;75.17;101516.59;5141432;27;20031;-78
2022/10/17 03:48:17;;;;;;;1.85;0.43;;;;;;;16.54;75.01;101522.91;5138938;27;20138;-79
2022/10/17 03:50:43;;;;;;;0.00;0.00;;;;;;;16.49;74.68;101521.25;5137270;27;20043;-78
2022/10/17 03:53:09;;;;;;;0.52;0.52;;;;;;;16.47;74.70;101525.78;5138857;27;20042;-78
2022/10/17 03:55:35;;;;;;;0.35;0.35;;;;;;;16.46;75.01;101532.06;5146348;27;20039;-78
2022/10/17 03:58:01;;;;;;;0.10;0.10;;;;;;;16.44;74.97;101528.56;5144484;27;20027;-77
2022/10/17 04:00:27;;;;;;;0.13;0.13;;;;;;;16.45;74.67;101533.00;5138513;27;20035;-78
2022/10/17 04:02:53;;;;;;;0.10;0.10;;;;;;;16.45;74.68;101541.00;5144183;27;20679;-77
2022/10/17 04:05:19;;;;;;;0.10;0.10;;;;;;;16.45;74.57;101542.81;5127949;27;20031;-78
2022/10/17 04:07:45;;;;;;;0.10;0.10;;;;;;;16.43;74.82;101544.66;5130872;27;20040;-79
2022/10/17 04:10:12;;;;;;;0.10;0.10;;;;;;;16.42;74.90;101541.09;5128232;27;20109;-78
2022/10/17 04:12:38;;;;;;;0.10;0.10;;;;;;;16.42;74.69;101535.75;5128776;27;20035;-78
2022/10/17 04:15:04;;;;;;;0.20;0.20;;;;;;;16.43;75.04;101536.63;5120628;27;20031;-78
2022/10/17 04:17:31;;;;;;;0.17;0.17;;;;;;;16.43;75.10;101544.66;5128187;27;20169;-77
2022/10/17 04:19:57;;;;;;;0.20;0.20;;;;;;;16.46;74.77;101553.47;5127735;27;20031;-78
2022/10/17 04:22:23;;;;;;;0.47;0.47;;;;;;;16.48;75.01;101543.56;5120512;27;20042;-77
2022/10/17 04:24:49;;;;;;;0.10;0.10;;;;;;;16.52;75.01;101540.81;5116166;28;20024;-78
2022/10/17 04:27:15;;;;;;;0.10;0.10;;;;;;;16.56;74.95;101542.44;5116849;28;20031;-77
2022/10/17 04:29:42;;;;;;;0.10;0.10;;;;;;;16.58;75.39;101545.94;5116760;28;20063;-77
2022/10/17 04:32:08;;;;;;;0.40;0.40;;;;;;;16.60;75.19;101552.13;5110712;28;20046;-77
2022/10/17 04:34:35;;;;;;;0.20;0.20;;;;;;;16.61;75.45;101565.44;5111106;28;20103;-77
2022/10/17 04:37:01;;;;;;;0.20;0.20;;;;;;;16.64;75.67;101564.47;5113183;28;20106;-77
2022/10/17 04:39:28;;;;;;;0.10;0.10;;;;;;;16.66;75.40;101565.31;5107257;28;20030;-77
2022/10/17 04:41:55;;;;;;;0.35;0.35;;;;;;;16.70;75.60;101566.94;5117210;28;20411;-78
2022/10/17 04:44:21;;;;;;;0.10;0.10;;;;;;;16.73;75.29;101572.16;5114806;28;20073;-78
2022/10/17 04:46:47;;;;;;;0.10;0.10;;;;;;;16.74;75.20;101568.56;5113691;28;20032;-78
2022/10/17 04:49:14;;;;;;;0.10;0.10;;;;;;;16.78;75.35;101566.66;5115190;28;20406;-78
2022/10/17 04:51:40;;;;;;;0.10;0.10;;;;;;;16.77;75.38;101568.47;5119005;28;20479;-78
2022/10/17 04:54:06;;;;;;;0.45;0.45;;;;;;;16.76;75.48;101574.75;5120038;28;20047;-78
2022/10/17 04:56:32;;;;;;;0.10;0.10;;;;;;;16.76;75.36;101572.09;5120966;28;20030;-78
2022/10/17 04:58:59;;;;;;;0.10;0.10;;;;;;;16.77;76.09;101568.47;5118106;28;20028;-78
2022/10/17 05:01:26;;;;;;;0.10;0.10;;;;;;;16.78;75.64;101569.34;5110776;28;20032;-78
2022/10/17 05:03:55;;;;;;;0.00;0.00;;;;;;;16.77;76.05;101568.47;5118818;28;20102;-77
2022/10/17 05:06:23;;;;;;;0.10;0.10;;;;;;;16.78;75.83;101575.56;5114330;28;20037;-78
2022/10/17 05:08:49;;;;;;;2.25;0.70;;;;;;;16.81;75.57;101572.78;5103687;28;20081;-78
2022/10/17 05:13:53;;;;;;;0.10;0.10;;;;;;;16.86;76.12;101569.06;5108172;27;20203;-78
2022/10/17 05:16:19;;;;;;;0.10;0.10;;;;;;;16.88;75.77;101585.97;5080889;28;20423;-78
2022/10/17 05:18:49;;;;;;;0.10;0.10;;;;;;;16.91;76.17;101601.91;5084205;28;20094;-77
2022/10/17 05:21:16;;;;;;;0.10;0.10;;;;;;;16.92;76.27;101588.53;5083351;28;20020;-77
2022/10/17 05:23:42;;;;;;;0.13;0.13;;;;;;;16.94;76.58;101593.81;5088086;28;20043;-78
2022/10/17 05:26:08;;;;;;;0.05;0.05;;;;;;;16.99;76.18;101589.16;5089719;28;20032;-79
2022/10/17 05:28:34;;;;;;;0.10;0.10;;;;;;;17.01;76.00;101579.28;5086883;28;20075;-79
2022/10/17 05:31:03;;;;;;;0.25;0.25;;;;;;;17.01;76.15;101581.97;5086620;28;20500;-77
2022/10/17 05:33:29;;;;;;;0.20;0.20;;;;;;;17.03;76.24;101585.44;5084048;28;20056;-79
2022/10/17 05:35:55;;;;;;;0.20;0.20;;;;;;;17.07;75.83;101573.72;5092107;28;20066;-79
2022/10/17 05:38:21;;;;;;;0.10;0.10;;;;;;;17.10;76.05;101578.09;5087298;28;20036;-78
2022/10/17 05:40:47;;;;;;;0.10;0.10;;;;;;;17.10;75.73;101576.28;5091505;28;20051;-78
2022/10/17 05:43:13;;;;;;;0.10;0.10;;;;;;;17.11;76.00;101585.19;5090444;28;20025;-79
2022/10/17 05:45:40;;;;;;;0.38;0.38;;;;;;;17.10;75.73;101581.63;5089356;28;20032;-79
2022/10/17 05:48:07;;;;;;;0.10;0.10;;;;;;;17.10;75.65;101575.41;5093778;28;20088;-78
2022/10/17 05:50:34;;;;;;;1.83;0.75;;;;;;;17.10;75.88;101583.44;5084762;28;20059;-78
2022/10/17 05:53:01;;;;;;;0.32;0.32;;;;;;;17.06;76.25;101596.06;5089432;28;20034;-78
2022/10/17 05:55:27;;;;;;;0.00;0.00;;;;;;;17.08;75.94;101594.19;5086420;28;20046;-78
2022/10/17 05:57:53;;;;;;;0.52;0.47;;;;;;;17.08;75.70;101583.47;5087552;28;20020;-78
2022/10/17 06:00:20;;;;;;;0.10;0.10;;;;;;;17.08;76.24;101594.19;5089204;28;21164;-79
2022/10/17 06:02:47;;;;;;;0.15;0.15;;;;;;;17.09;76.31;101589.72;5088127;28;20028;-78
2022/10/17 06:05:14;;;;;;;0.30;0.30;;;;;;;17.09;76.36;101585.22;5091175;28;20111;-78
2022/10/17 06:07:40;;;;;;;0.20;0.20;;;;;;;17.11;76.49;101577.16;5092529;28;20107;-78
2022/10/17 06:10:07;;;;;;;0.10;0.10;;;;;;;17.13;76.11;101586.00;5090786;28;20032;-79
2022/10/17 06:12:33;;;;;;;0.17;0.17;;;;;;;17.12;76.40;101574.44;5090773;28;20032;-79
2022/10/17 06:14:59;;;;;;;0.08;0.08;;;;;;;17.15;75.92;101589.50;5088368;28;20090;-80
2022/10/17 06:17:27;;;;;;;0.10;0.10;;;;;;;17.18;76.08;101591.19;5092290;28;20123;-78
2022/10/17 06:19:53;;;;;;;0.10;0.10;;;;;;;17.20;76.13;101587.53;5091899;28;20036;-78
2022/10/17 06:22:19;;;;;;;0.93;0.93;;;;;;;17.23;76.17;101598.13;5090637;28;20040;-78
2022/10/17 06:24:45;;;;;;;0.00;0.00;;;;;;;17.26;75.89;101615.91;5078868;28;20037;-78
2022/10/17 06:27:11;;;;;;;0.00;0.00;;;;;;;17.27;76.04;101621.22;5075539;28;20056;-78
2022/10/17 06:29:37;;;;;;;0.40;0.40;;;;;;;17.29;75.99;101615.78;5072077;28;20428;-79
2022/10/17 06:32:03;;;;;;;0.10;0.10;;;;;;;17.31;76.12;101621.97;5078578;28;20484;-78
2022/10/17 06:34:29;;;;;;;0.20;0.20;;;;;;;17.33;76.01;101627.28;5075268;28;20526;-78
2022/10/17 06:36:55;;;;;;;0.10;0.10;;;;;;;17.36;76.08;101633.41;5077115;28;20036;-78
2022/10/17 06:39:22;;;;;;;0.15;0.15;;;;;;;17.38;76.24;101644.91;5072602;28;20016;-78
2022/10/17 06:41:48;;;;;;;0.00;0.00;;;;;;;17.42;75.92;101645.66;5071552;28;20086;-77
2022/10/17 06:44:14;;;;;;;0.10;0.10;;;;;;;17.44;76.29;101650.03;5074442;28;20029;-77
2022/10/17 06:46:40;;;;;;;0.15;0.15;;;;;;;17.46;76.19;101650.88;5073360;28;20043;-77
2022/10/17 06:49:06;;;;;;;0.08;0.08;;;;;;;17.49;76.47;101649.03;5066811;28;20056;-80
2022/10/17 06:51:36;;;;;;;0.10;0.10;;;;;;;17.54;76.24;101655.09;5066889;28;20177;-77
2022/10/17 06:54:03;;;;;;;1.25;1.17;;;;;;;17.53;75.97;101653.34;5067066;28;20040;-78
2022/10/17 06:56:29;;;;;;;0.10;0.10;;;;;;;17.54;76.06;101645.22;5067758;28;20028;-77
2022/10/17 06:58:55;;;;;;;0.63;0.63;;;;;;;17.56;75.86;101653.25;5064002;28;20041;-77
2022/10/17 07:01:21;;;;;;;0.10;0.10;;;;;;;17.58;75.90;101662.06;5072031;28;20036;-78
2022/10/17 07:03:49;;;;;;;0.10;0.10;;;;;;;17.62;75.73;101669.94;5067025;28;20711;-77
2022/10/17 07:06:16;;;;;;;0.25;0.25;;;;;;;17.65;75.85;101663.59;5071064;28;20127;-78
2022/10/17 07:08:43;;;;;;;0.10;0.10;;;;;;;17.68;75.80;101668.84;5067614;28;20092;-77
2022/10/17 07:11:15;;;;;;;0.10;0.10;;;;;;;17.71;75.99;101668.75;5072478;28;20029;-77
2022/10/17 07:13:42;;;;;;;0.52;0.52;;;;;;;17.71;75.75;101679.47;5069837;28;20041;-77
2022/10/17 07:16:09;;;;;;;0.10;0.10;;;;;;;17.72;76.29;101702.66;5071857;28;20028;-77
2022/10/17 07:18:36;;;;;;;0.10;0.10;;;;;;;17.72;76.28;101704.44;5070967;28;20051;-77
2022/10/17 07:21:02;;;;;;;0.20;0.20;;;;;;;17.70;76.65;101704.50;5069403;28;20035;-76
2022/10/17 07:23:29;;;;;;;0.13;0.13;;;;;;;17.75;76.21;101715.06;5071677;28;20085;-77
2022/10/17 07:26:06;;;;;;;0.20;0.20;;;;;;;17.81;76.73;101722.88;5072220;28;20040;-77
2022/10/17 07:28:33;;;;;;;3.80;0.85;;;;;;;17.79;76.77;101741.72;5070309;28;20028;-77
2022/10/17 07:31:05;;;;;;;0.08;0.08;;;;;;;17.88;76.87;101758.38;5076130;28;20027;-80
2022/10/17 07:33:31;;;;;;;0.10;0.10;;;;;;;17.89;76.82;101779.75;5069915;28;20479;-78
2022/10/17 07:35:59;;;;;;;0.40;0.40;;;;;;;17.91;77.16;101787.78;5070820;28;20020;-79
2022/10/17 07:38:26;;;;;;;0.10;0.10;;;;;;;17.91;77.28;101794.00;5068660;28;20068;-78
2022/10/17 07:40:55;;;;;;;0.22;0.22;;;;;;;17.98;77.47;101805.44;5071051;28;20094;-78
2022/10/17 07:43:21;;;;;;;1.98;1.73;;;;;;;17.98;77.46;101800.06;5070885;28;20388;-79
2022/10/17 07:45:47;;;;;;;0.40;0.40;;;;;;;18.03;77.50;101803.47;5070712;28;20376;-78
2022/10/17 07:48:13;;;;;;;0.10;0.10;;;;;;;18.03;77.78;101813.28;5071382;28;20024;-78
2022/10/17 07:50:39;;;;;;;0.10;0.10;;;;;;;18.12;77.24;101837.13;5068639;28;20029;-78
2022/10/17 07:53:05;;;;;;;0.10;0.10;;;;;;;18.14;77.42;101858.50;5073157;28;20035;-79
2022/10/17 07:55:32;;;;;;;0.65;0.63;;;;;;;18.06;77.84;101869.50;5071802;28;20037;-78
2022/10/17 07:57:59;;;;;;;0.00;0.00;;;;;;;18.06;77.77;101867.69;5073040;28;20052;-79
2022/10/17 08:00:26;;;;;;;0.30;0.30;;;;;;;18.14;77.47;101863.88;5068929;28;20036;-78
2022/10/17 08:02:52;;;;;;;0.20;0.20;;;;;;;18.14;77.75;101845.97;5066498;28;20036;-78
2022/10/17 08:05:18;;;;;;;0.45;0.45;;;;;;;18.11;78.14;101846.94;5071680;28;20030;-78
2022/10/17 08:07:44;;;;;;;0.15;0.15;;;;;;;18.14;78.81;101831.69;5070721;28;20385;-79
2022/10/17 08:10:12;;;;;;;0.20;0.20;;;;;;;18.18;79.02;101823.47;5070318;28;20078;-79
2022/10/17 08:12:38;;;;;;;0.20;0.20;;;;;;;18.19;78.80;101843.13;5073810;28;20052;-79
2022/10/17 08:15:06;;;;;;;0.40;0.40;;;;;;;18.21;78.88;101849.31;5075077;28;20070;-79
2022/10/17 08:17:35;;;;;;;1.05;0.80;;;;;;;18.27;78.79;101858.00;5066934;28;20044;-77
2022/10/17 08:20:02;;;;;;;0.55;0.55;;;;;;;18.31;78.23;101845.34;5066598;28;20097;-78
2022/10/17 08:22:28;;;;;;;0.10;0.10;;;;;;;18.29;78.37;101855.25;5067172;28;20025;-78
2022/10/17 08:24:54;;;;;;;0.10;0.10;;;;;;;18.31;78.07;101852.53;5071418;28;20032;-78
2022/10/17 08:27:23;;;;;;;0.20;0.20;;;;;;;18.32;78.66;101847.13;5068797;28;20089;-78
2022/10/17 08:29:52;;;;;;;0.25;0.25;;;;;;;18.31;78.96;101849.88;5067564;28;20039;-78
2022/10/17 08:32:20;;;;;;;0.45;0.45;;;;;;;18.37;78.47;101855.00;5067520;28;20036;-78
2022/10/17 08:34:46;;;;;;;0.40;0.40;;;;;;;18.39;78.18;101834.34;5066785;28;20033;-78
2022/10/17 08:37:13;;;;;;;0.10;0.10;;;;;;;18.42;78.07;101820.81;5068029;28;20529;-78
2022/10/17 08:39:40;;;;;;;0.10;0.10;;;;;;;18.47;77.94;101818.84;5071411;28;20116;-78
2022/10/17 08:45:05;;;;;;;0.65;0.65;;;;;;;18.52;78.03;101813.31;5126160;27;20381;-76
2022/10/17 08:47:38;;;;;;;0.10;0.10;;;;;;;18.54;77.86;101801.56;5095669;28;20028;-78
2022/10/17 08:50:13;;;;;;;0.35;0.35;;;;;;;18.56;77.75;101786.28;5089893;28;20025;-77
2022/10/17 08:52:47;;;;;;;0.38;0.38;;;;;;;18.50;78.14;101805.28;5096124;28;20020;-78
2022/10/17 08:55:21;;;;;;;0.38;0.38;;;;;;;18.58;77.57;101813.94;5096748;28;20048;-78
2022/10/17 08:57:48;;;;;;;0.10;0.10;;;;;;;18.58;77.75;101821.13;5094640;28;20036;-78
2022/10/17 09:00:18;;;;;;;0.10;0.10;;;;;;;18.57;77.89;101835.47;5089227;28;20047;-77
2022/10/17 09:05:36;;;;;;;0.10;0.10;;;;;;;18.59;77.97;101865.78;5116258;27;20207;-77
2022/10/17 09:08:31;;;;;;;0.20;0.20;;;;;;;18.64;77.71;101869.22;5106297;28;20028;-77
2022/10/17 09:11:08;;;;;;;0.10;0.10;;;;;;;18.53;78.28;101871.38;5091035;28;20152;-77
2022/10/17 09:19:10;;;;;;;0.10;0.10;;;;;;;18.72;78.09;101850.97;5123619;27;20164;-77
2022/10/17 09:21:46;;;;;;;0.55;0.55;;;;;;;18.76;78.15;101841.00;5079924;28;20174;-78
2022/10/17 09:24:18;;;;;;;0.10;0.10;;;;;;;18.79;78.02;101850.75;5081646;28;20043;-76
2022/10/17 09:26:45;;;;;;;0.50;0.50;;;;;;;18.78;78.00;101843.63;5084588;28;20012;-76
2022/10/17 09:29:22;;;;;;;0.10;0.10;;;;;;;18.84;77.73;101833.53;5081824;28;20024;-77
2022/10/17 09:31:59;;;;;;;0.20;0.20;;;;;;;18.87;78.13;101845.97;5067957;28;20040;-76
2022/10/17 09:34:28;;;;;;;0.28;0.28;;;;;;;18.88;77.85;101851.28;5076199;28;20036;-76
2022/10/17 09:36:56;;;;;;;0.45;0.45;;;;;;;18.89;77.93;101854.81;5084395;28;20407;-77
2022/10/17 09:39:25;;;;;;;3.40;1.30;;;;;;;18.91;78.03;101855.69;5070682;28;20036;-77
2022/10/17 09:41:55;;;;;;;0.13;0.13;;;;;;;18.92;78.13;101863.66;5079858;28;20028;-77
2022/10/17 09:44:28;;;;;;;0.00;0.00;;;;;;;18.90;78.23;101872.69;5080611;28;20036;-77
2022/10/17 09:49:35;;;;;;;0.30;0.30;;;;;;;18.93;77.97;101912.91;5113863;27;20157;-78
2022/10/17 09:52:09;;;;;;;0.10;0.10;;;;;;;18.87;78.49;101930.06;5104747;28;20085;-78
2022/10/17 09:54:46;;;;;;;0.55;0.55;;;;;;;18.87;78.49;101923.84;5094850;28;20024;-76
2022/10/17 09:57:14;;;;;;;0.10;0.10;;;;;;;18.83;78.28;101927.56;5089324;28;20029;-77
2022/10/17 09:59:44;;;;;;;0.10;0.10;;;;;;;18.83;77.85;101932.91;5090429;28;20067;-77
2022/10/17 10:07:34;;;;;;;0.25;0.25;;;;;;;18.76;78.37;101951.94;5110465;27;20222;-76
2022/10/17 10:10:02;;;;;;;0.10;0.10;;;;;;;18.79;78.52;101958.13;5093748;28;20021;-76
2022/10/17 10:12:32;;;;;;;0.17;0.17;;;;;;;18.81;78.29;101967.03;5104998;28;20036;-76
2022/10/17 10:14:58;;;;;;;0.68;0.68;;;;;;;18.81;78.35;101962.53;5084781;28;20743;-77
2022/10/17 10:17:40;;;;;;;0.22;0.22;;;;;;;18.86;78.58;101965.91;5080292;28;20040;-76
2022/10/17 10:20:28;;;;;;;0.22;0.22;;;;;;;18.96;78.08;101968.31;5083083;28;20024;-76
2022/10/17 10:23:17;;;;;;;0.20;0.20;;;;;;;18.98;78.30;101963.72;5076146;28;20108;-76
2022/10/17 10:25:58;;;;;;;0.50;0.43;;;;;;;18.98;78.01;101972.69;5079297;28;20035;-77
2022/10/17 10:28:29;;;;;;;0.45;0.45;;;;;;;18.98;78.21;101966.41;5073435;28;20029;-77
2022/10/17 10:30:59;;;;;;;0.52;0.52;;;;;;;18.96;78.29;101979.91;5078296;28;20144;-76
2022/10/17 10:33:28;;;;;;;0.28;0.28;;;;;;;18.89;78.37;101986.41;5080367;28;20438;-76
2022/10/17 10:36:02;;;;;;;0.20;0.20;;;;;;;18.84;78.17;101989.28;5078902;28;20047;-76
2022/10/17 10:38:29;;;;;;;1.52;1.45;;;;;;;18.83;78.14;102005.41;5078550;28;20029;-76
2022/10/17 10:41:11;;;;;;;0.47;0.32;;;;;;;18.89;77.99;101997.13;5075871;28;20456;-77
2022/10/17 10:43:50;;;;;;;0.10;0.10;;;;;;;18.85;78.11;102006.25;5072244;28;20103;-77
2022/10/17 10:49:28;;;;;;;0.28;0.28;;;;;;;18.80;78.20;102021.66;5156239;27;126003;-79
2022/10/17 10:51:57;;;;;;;0.10;0.10;;;;;;;18.70;78.53;102013.91;5154878;27;20031;-78
2022/10/17 10:57:03;;;;;;;0.20;0.20;;;;;;;18.69;78.35;102022.03;5135829;27;20038;-81
2022/10/17 10:59:59;;;;;;;0.50;0.47;;;;;;;18.76;78.20;102027.13;5107151;28;20039;-78
2022/10/17 11:02:35;;;;;;;0.65;0.57;;;;;;;18.78;78.06;102024.41;5099442;28;20036;-78
2022/10/17 11:05:18;;;;;;;0.20;0.20;;;;;;;18.80;77.74;102027.03;5087921;28;20034;-78
2022/10/17 11:08:24;;;;;;;0.10;0.10;;;;;;;18.78;77.78;102028.88;5080089;28;20082;-78
2022/10/17 11:14:02;;;;;;;0.10;0.10;;;;;;;18.76;77.57;102035.16;5102326;27;20170;-79
2022/10/17 11:19:27;;;;;;;0.10;0.10;;;;;;;18.73;77.56;102050.53;5130205;27;784764;-78
2022/10/17 11:24:39;;;;;;;0.13;0.13;;;;;;;18.56;78.42;102061.84;5072355;28;20499;-78
2022/10/17 11:27:07;;;;;;;0.20;0.20;;;;;;;18.64;77.97;102057.09;5036779;28;20029;-77
2022/10/17 11:29:37;;;;;;;0.10;0.10;;;;;;;18.70;77.80;102067.59;5042916;28;20068;-78
2022/10/17 11:32:29;;;;;;;0.20;0.20;;;;;;;18.73;77.66;102064.81;5050037;28;20032;-78
2022/10/17 11:35:02;;;;;;;0.20;0.20;;;;;;;18.75;77.58;102064.75;5040832;28;20049;-78
2022/10/17 11:37:36;;;;;;;0.38;0.38;;;;;;;18.78;77.74;102070.03;5049323;28;20033;-78
2022/10/17 11:40:09;;;;;;;0.10;0.10;;;;;;;18.84;77.81;102069.81;5051019;28;20492;-77
2022/10/17 11:42:44;;;;;;;0.10;0.10;;;;;;;18.93;77.73;102068.66;5049524;28;20104;-78
2022/10/17 11:45:16;;;;;;;0.47;0.47;;;;;;;18.96;77.59;102067.66;5047448;28;20764;-77
2022/10/17 11:47:45;;;;;;;;;;;;;;;19.05;77.09;102078.97;5044350;28;20104;-77
2022/10/17 11:50:31;;;;;;;0.10;0.10;;;;;;;18.96;77.29;102076.59;5038116;28;20284;-77
2022/10/17 11:53:05;;;;;;;0.10;0.10;;;;;;;18.90;77.05;102076.78;5032398;28;20022;-77
2022/10/17 11:55:33;;;;;;;0.30;0.30;;;;;;;18.86;77.04;102080.50;5040446;28;20382;-77
2022/10/17 11:58:23;;;;;;;0.52;0.52;;;;;;;18.91;77.27;102089.31;5032545;28;20022;-77
2022/10/17 12:06:21;;;;;;;0.10;0.10;;;;;;;18.81;77.05;102106.66;5111009;27;20142;-77
2022/10/17 12:11:54;;;;;;;0.20;0.20;;;;;;;18.82;77.73;102108.41;5159250;27;93177;-79
2022/10/17 12:14:41;;;;;;;0.10;0.10;;;;;;;19.04;77.16;102104.06;5140363;27;20428;-78
2022/10/17 12:17:28;;;;;;;0.15;0.15;;;;;;;19.17;76.96;102111.69;5137452;27;20032;-78
2022/10/17 12:25:50;;;;;;;0.25;0.25;;;;;;;19.27;76.21;102123.84;5109114;27;20145;-77
2022/10/17 12:28:39;;;;;;;0.08;0.08;;;;;;;19.35;76.22;102123.56;5068689;28;20064;-78
2022/10/17 12:33:59;;;;;;;0.03;0.03;;;;;;;19.31;75.47;102128.16;5135366;27;20138;-78
2022/10/17 12:55:12;;;;;;;0.10;0.10;;;;;;;19.55;75.17;102144.31;5113261;27;20666;-77
2022/10/17 12:58:01;;;;;;;0.30;0.30;;;;;;;19.61;75.17;102140.53;5066212;28;20025;-77
2022/10/17 13:03:15;;;;;;;0.40;0.40;;;;;;;19.62;74.98;102151.22;5133025;27;777080;-78
2022/10/17 13:05:49;;;;;;;0.10;0.10;;;;;;;19.60;75.09;102153.13;5153410;27;20113;-78
2022/10/17 13:08:21;;;;;;;0.68;0.68;;;;;;;19.58;74.58;102154.97;5144185;27;20028;-79
2022/10/17 13:10:49;;;;;;;1.20;1.10;;;;;;;19.63;74.51;102162.88;5150381;27;20109;-78
2022/10/17 13:13:22;;;;;;;0.10;0.10;;;;;;;19.61;74.45;102156.66;5138912;27;20035;-79
2022/10/17 13:15:50;;;;;;;0.10;0.10;;;;;;;19.56;74.28;102165.78;5153743;27;20048;-78
2022/10/17 13:18:20;;;;;;;1.55;0.52;;;;;;;19.53;74.10;102173.97;5155050;27;20027;-78